Station: Dunalley  

  Atmospheric Gas Attenuation - ITU Rec 676-11   ----------------- dB/100km -----------------
Date Time Temp RH % AH g/m3 Dew Point Wind Direction Speed kph Gust kph Barometer mB Rainfall Since 9am 24GHz 47GHz 76GHz 122GHz 134GHz 241GHz
08/05 12:30 12.3 67 7.28 6.4 46 65 1014.5 0 16.8 24.3 35.3 92.5 83.0 284.5
08/05 12:20 12.2 72 7.77 7.3 44 50 1014.6 0 17.9 25.1 37.3 97.8 89.5 307.2
08/05 12:10 12.2 67 7.23 6.2 54 61 1014.3 0 16.7 24.2 35.2 92.1 82.5 282.6
08/05 12:00 12.3 72 7.82 7.4 46 57 1014.4 0 18.0 25.1 37.5 98.2 90.0 309.0
08/05 11:50 11.5 81 8.37 8.3 46 59 1014.5 0 19.2 26.2 40.1 105.2 98.4 338.0
08/05 11:40 11.9 76 8.05 7.8 57 61 1014.2 0 18.5 25.6 38.6 101.1 93.5 321.2
08/05 11:30 12.5 68 7.48 6.8 50 65 1014.1 0 17.3 24.5 36.0 94.3 85.4 292.7
08/05 11:20 12.5 68 7.48 6.9 46 52 1014.1 0 17.3 24.5 36.0 94.3 85.4 292.7
08/05 11:10 11.9 74 7.84 7.4 50 56 1014 0 18.1 25.2 37.7 98.8 90.7 311.4
08/05 11:00 11.2 77 7.81 7.3 57 70 1014.1 0 18.0 25.4 37.9 99.4 91.2 312.8
08/05 10:50 11.9 72 7.63 7 61 69 1013.6 0 17.6 24.9 36.9 96.6 88.0 301.7
08/05 10:40 12.5 68 7.48 6.7 44 50 1013.6 0 17.3 24.5 36.0 94.3 85.3 292.6
08/05 10:30 12.3 64 6.95 5.7 57 74 1013.2 0 16.1 23.7 34.0 89.0 78.7 269.5
08/05 10:20 11.9 66 6.99 5.9 57 65 1013.1 0 16.2 23.9 34.3 89.8 79.7 272.6
08/05 10:10 12.1 71 7.61 7 50 57 1012.9 0 17.6 24.8 36.7 96.0 87.4 299.8
08/05 10:00 11.7 68 7.11 6 57 70 1012.7 0 16.5 24.1 34.9 91.3 81.4 278.6
08/05 09:50 12 69 7.35 6.5 54 67 1012.9 0 17.0 24.4 35.7 93.4 84.2 288.4
08/05 09:40 12.1 69 7.4 6.6 59 70 1012.8 0 17.1 24.4 35.8 93.8 84.7 290.2
08/05 09:30 12 69 7.35 6.5 52 69 1012.8 0 17.0 24.4 35.7 93.4 84.1 288.3
08/05 09:20 11.6 72 7.48 6.7 50 57 1012.7 0 17.3 24.7 36.4 95.3 86.3 295.7
08/05 09:10 11.5 72 7.44 6.6 52 57 1012.6 0 17.2 24.7 36.2 94.9 85.8 294.2
08/05 09:00 11.3 76 7.75 7.2 50 61 1012.5 0 17.9 25.2 37.6 98.5 90.1 309.2
08/05 08:50 11.2 78 7.91 7.5 50 57 1012.3 2.4 18.2 25.5 38.3 100.3 92.4 317.0
08/05 08:40 10.8 78 7.71 7.1 63 69 1012 2.4 17.8 25.3 37.6 98.6 90.2 309.2
08/05 08:30 11.5 73 7.54 6.8 52 61 1011.9 2.4 17.4 24.8 36.6 95.9 87.1 298.6
08/05 08:20 11.6 72 7.48 6.7 48 56 1011.4 2.4 17.3 24.6 36.3 95.1 86.2 295.4
08/05 08:10 11.6 69 7.17 6.1 57 63 1011.1 2.4 16.6 24.1 35.1 91.8 82.1 281.2
08/05 08:00 11.3 72 7.35 6.4 50 61 1011.1 2.4 17.0 24.5 35.9 94.1 84.8 290.5
08/05 07:50 11.6 73 7.59 6.9 46 52 1011.1 2.4 17.5 24.8 36.7 96.3 87.6 300.4
08/05 07:40 11.3 71 7.24 6.2 63 72 1010.7 2.4 16.8 24.3 35.5 92.9 83.3 285.4
08/05 07:30 11.3 73 7.45 6.6 56 69 1010.3 2.4 17.2 24.6 36.3 95.1 86.0 294.9
08/05 07:20 11.1 70 7.05 5.8 67 76 1010 2.4 16.4 24.0 34.8 91.1 81.0 277.3
08/05 07:10 11.3 72 7.35 6.4 61 67 1010 2.4 17.0 24.5 35.9 94.0 84.7 290.2
08/05 07:00 11 75 7.51 6.7 56 69 1009.8 2.4 17.4 24.8 36.6 96.0 87.1 298.6
08/05 06:50 10.9 77 7.66 7 59 65 1009.8 2.4 17.7 25.1 37.3 97.7 89.2 306.0
08/05 06:40 10.6 80 7.81 7.3 59 67 1009.7 2.4 18.0 25.4 38.0 99.7 91.5 314.1
08/05 06:30 11.1 77 7.76 7.2 56 70 1009.6 2.4 17.9 25.2 37.6 98.5 90.3 309.8
08/05 06:20 11 78 7.81 7.3 56 65 1009.6 2.4 18.0 25.3 37.8 99.2 91.1 312.5
08/05 06:10 10.7 83 8.15 7.9 52 57 1009.6 2.4 18.8 25.9 39.4 103.3 96.0 329.7
08/05 06:00 10.9 80 7.96 7.6 50 57 1009.2 2.2 18.4 25.5 38.5 100.9 93.2 319.8
08/05 05:50 10.8 80 7.91 7.6 56 63 1009 2.2 18.3 25.5 38.3 100.5 92.6 317.8
08/05 05:40 10.9 84 8.36 8.4 48 59 1009 2 19.2 26.2 40.1 105.3 98.5 338.6
08/05 05:30 10.4 89 8.58 8.7 50 65 1008.9 2 19.7 26.7 41.3 108.4 102.2 351.3
08/05 05:20 10.3 87 8.33 8.2 56 61 1008.7 2 19.2 26.3 40.3 105.7 98.9 339.7
08/05 05:10 10.6 89 8.69 8.8 35 43 1008.7 2 19.9 26.8 41.6 109.3 103.4 355.7
08/05 05:00 10.4 90 8.68 8.8 43 54 1008.5 2 19.9 26.9 41.7 109.5 103.5 356.1
08/05 04:50 10.2 88 8.38 8.3 46 50 1008.4 2 19.3 26.4 40.5 106.4 99.7 342.5
08/05 04:40 10.6 84 8.2 8 41 48 1008 2 18.9 26.0 39.5 103.8 96.7 332.0
08/05 04:30 11.2 80 8.11 7.9 35 44 1007.7 2 18.7 25.6 38.9 102.0 94.7 325.2
08/05 04:20 11 80 8.01 7.8 39 43 1007.5 2 18.5 25.5 38.5 101.2 93.6 321.3
08/05 04:10 11.4 74 7.6 6.9 48 54 1007.1 2 17.6 24.7 36.7 96.2 87.6 300.6
08/05 04:00 11.8 72 7.58 6.9 43 54 1006.9 2 17.5 24.6 36.4 95.5 86.9 298.1
08/05 03:50 11.9 71 7.52 6.8 46 52 1006.8 2 17.4 24.5 36.1 94.7 86.0 295.0
08/05 03:40 12 70 7.46 6.7 48 54 1006.6 2 17.2 24.3 35.8 94.0 85.1 291.8
08/05 03:30 12.1 72 7.72 7.2 50 61 1006.6 2 17.8 24.7 36.8 96.6 88.4 303.3
08/05 03:20 11.9 73 7.73 7.2 46 52 1006.4 2 17.8 24.8 36.9 96.9 88.7 304.4
08/05 03:10 11.8 80 8.42 8.4 37 43 1006.4 2 19.3 25.9 39.8 104.4 98.0 336.8
08/05 03:00 11.5 82 8.47 8.5 37 46 1006.3 2 19.4 26.1 40.1 105.4 99.0 340.5
08/05 02:50 11.7 81 8.47 8.5 39 46 1006.3 2 19.4 26.0 40.0 105.1 98.8 339.6
08/05 02:40 12 81 8.63 8.8 35 39 1006 2 19.7 26.2 40.5 106.4 100.5 345.7
08/05 02:30 12.1 82 8.79 9.1 35 46 1005.9 2 20.1 26.4 41.1 108.0 102.5 352.8
08/05 02:20 11.5 84 8.68 8.9 35 37 1005.9 2 19.9 26.4 41.0 107.6 101.8 350.3
08/05 02:10 11.4 86 8.83 9.1 35 39 1005.8 2 20.2 26.7 41.6 109.4 104.0 357.9
08/05 02:00 11.5 85 8.78 9.1 35 41 1005.8 1.2 20.1 26.6 41.4 108.7 103.2 355.1
08/05 01:50 11.6 83 8.63 8.8 35 41 1005.8 1 19.8 26.3 40.7 106.9 101.0 347.5
08/05 01:40 12.3 82 8.9 9.3 32 33 1005.7 1 20.3 26.5 41.4 108.9 103.7 357.1
08/05 01:30 12.4 80 8.74 9.1 33 39 1005.5 1 20.0 26.2 40.7 107.0 101.4 349.0
08/05 01:20 12.5 81 8.91 9.3 28 32 1005.4 1 20.3 26.5 41.4 108.7 103.6 356.6
08/05 01:10 12.3 81 8.8 9.1 28 30 1005.4 1 20.1 26.4 41.0 107.8 102.4 352.3
08/05 01:00 12.3 81 8.8 9.1 33 39 1005.3 1 20.1 26.4 41.0 107.8 102.4 352.2
08/05 00:50 12.2 81 8.74 9 32 35 1005.3 1 20.0 26.3 40.8 107.3 101.7 349.8
08/05 00:40 11.7 85 8.89 9.2 26 30 1005.2 0.8 20.3 26.7 41.7 109.6 104.4 359.2
08/05 00:30 11.4 86 8.83 9.1 22 28 1005.1 0.8 20.2 26.7 41.6 109.4 104.0 357.7
08/05 00:20 11.5 87 8.99 9.4 20 24 1004.9 0.8 20.6 26.9 42.2 111.0 106.0 364.9
08/05 00:10 11 84 8.41 8.5 20 26 1004.8 0.8 19.3 26.1 40.1 105.2 98.7 339.4
08/05 00:00 10.9 84 8.36 8.3 20 30 1004.8 0.8 19.2 26.0 39.9 104.8 98.2 337.4
07/05 23:50 10.8 84 8.3 8.2 20 24 1004.7 0.8 19.1 26.0 39.7 104.3 97.5 335.0
07/05 23:40 10.4 84 8.1 7.8 22 26 1004.7 0.8 18.7 25.7 39.1 102.6 95.3 327.2
07/05 23:30 10.4 85 8.19 8 20 28 1004.6 0.8 18.9 25.9 39.4 103.6 96.5 331.5
07/05 23:20 10.4 87 8.39 8.3 24 32 1004.7 0.8 19.3 26.2 40.3 105.8 99.2 341.0
07/05 23:10 10.2 86 8.19 7.9 20 24 1004.8 0.8 18.9 26.0 39.6 103.9 96.8 332.4
07/05 23:00 10.2 82 7.81 7.3 22 32 1004.9 0.8 18.1 25.3 38.0 99.7 91.6 314.5
07/05 22:50 9.9 83 7.75 7.1 24 30 1004.8 0.8 18.0 25.3 37.9 99.5 91.2 312.8
07/05 22:40 9.8 84 7.8 7.2 20 26 1005 0.8 18.1 25.4 38.2 100.1 92.0 315.6
07/05 22:30 9.8 83 7.7 7.1 24 32 1005 0.6 17.9 25.3 37.7 99.1 90.6 310.9
07/05 22:20 9.7 83 7.65 6.9 20 24 1005.1 0.6 17.7 25.2 37.6 98.7 90.1 309.0
07/05 22:10 9.9 81 7.56 6.9 26 32 1005.1 0.4 17.5 25.0 37.1 97.4 88.7 304.0
07/05 22:00 9.8 79 7.33 6.3 30 43 1004.9 0.2 17.1 24.7 36.2 95.1 85.7 293.6
07/05 21:50 10.4 71 6.84 5.5 28 35 1004.8 0 16.0 23.7 34.0 89.2 78.7 269.1
07/05 21:40 10.5 67 6.5 4.6 30 37 1004.8 0 15.2 23.2 32.7 85.5 74.2 253.5
07/05 21:30 10.5 66 6.4 4.4 33 52 1004.9 0 15.0 23.0 32.3 84.5 73.0 249.1
07/05 21:20 10.3 67 6.42 4.4 30 39 1004.8 0 15.1 23.1 32.5 84.9 73.4 250.6
07/05 21:10 9.9 67 6.26 4 22 30 1005 0 14.8 22.9 32.0 83.7 71.8 244.8
07/05 21:00 9.6 67 6.14 3.8 20 33 1004.9 0 14.5 22.8 31.7 82.8 70.5 240.4
07/05 20:50 9.6 66 6.05 3.7 17 19 1005 0 14.3 22.7 31.3 81.9 69.4 236.4
07/05 20:40 9.7 64 5.9 3.2 20 28 1005.1 0 14.0 22.4 30.7 80.3 67.4 229.5
07/05 20:30 9.5 62 5.65 2.6 11 19 1005.4 0 13.5 22.1 29.9 78.0 64.5 219.2
07/05 20:20 9.4 62 5.61 2.5 7 9 1005.8 0 13.4 22.1 29.8 77.7 64.1 217.8
07/05 20:10 9.3 62 5.57 2.4 6 7 1006 0 13.3 22.1 29.7 77.4 63.7 216.4
07/05 20:00 9.2 61 5.45 2.1 11 22 1006 0 13.0 21.9 29.3 76.3 62.3 211.5

Last Refresh: 08-May-2026 12:09:36

Bureau of Meteorology